• Join FlightAware (Why Join?)
  • Login
  • US Flag 
10:28PM EDT


 

Airport Tracker/Info


-or-


 

Live Flight TrackerFlight Track Log ✈ CSN6878 ✈ 24-Oct-2013 ✈ ZWKC / KCA - ZWWW / URC

Flight Track Log - Related Links

Times and Time Zones

All times are in EDT time to prevent confusion due to time zone crossing. See the CSN6878 flight status page for this flight to view local times or setup timezone preferences in your user account.

Time Position Orientation Groundspeed Altitude Reporting Facility
EDT Latitude Longitude Course Direction KTS MPH feet Rate Location/Type
11:39AM 41.8211 83.1838 55° Northeast  Level Estimated
11:40AM 41.9239 83.3813 55° Northeast  Level Estimated
11:41AM 42.0263 83.5795 55° Northeast  Level Estimated
11:42AM 42.1283 83.7783 55° Northeast  Level Estimated
11:43AM 42.2301 83.9777 55° Northeast  Level Estimated
11:44AM 42.3314 84.1778 56° Northeast  Level Estimated
11:45AM 42.4324 84.3785 56° Northeast  Level Estimated
11:46AM 42.5331 84.5798 56° Northeast  Level Estimated
11:47AM 42.6334 84.7819 56° Northeast  Level Estimated
11:48AM 42.7334 84.9845 56° Northeast  Level Estimated
11:49AM 42.8330 85.1878 56° Northeast  Level Estimated
11:50AM 42.9322 85.3918 56° Northeast  Level Estimated
11:51AM 43.0311 85.5964 56° Northeast  Level Estimated
11:52AM 43.1296 85.8017 57° Northeast  Level Estimated
11:53AM 43.2278 86.0077 57° Northeast  Level Estimated
11:54AM 43.3255 86.2143 57° Northeast  Level Estimated
11:55AM 43.4229 86.4215 57° Northeast  Level Estimated
11:56AM 43.5200 86.6295 57° Northeast  Level Estimated
11:57AM 43.6166 86.8381 57° Northeast  Level Estimated
11:58AM 43.7129 87.0474 57° Northeast  Level Estimated
11:59AM 43.8088 87.2573 58° Northeast  Level Estimated
12:00PM 43.9043 87.4680 58° Northeast  Level Estimated
12:01PM 43.9071 87.4742 58° Northeast  Level Estimated
12:02PM 43.9071 87.4742 144° Southeast  Level Estimated
12:03PM 43.9071 87.4742 144° Southeast  Level Estimated
12:04PM 43.9071 87.4742 144° Southeast  Level Estimated
12:05PM 43.9071 87.4742 144° Southeast  Level Estimated
12:06PM 43.9071 87.4742 144° Southeast  Level Estimated
12:07PM 43.9071 87.4742 144° Southeast  Level Estimated
12:08PM 43.9071 87.4742 144° Southeast  Level Estimated
12:09PM 43.9071 87.4742 144° Southeast  Level Estimated
12:10PM 43.9071 87.4742 144° Southeast  Level Estimated
12:11PM 43.9071 87.4742 144° Southeast  Level Estimated
12:12PM 43.9071 87.4742 144° Southeast  Level Estimated
12:13PM 43.9071 87.4742 144° Southeast  Level Estimated
12:14PM 43.9071 87.4742 144° Southeast  Level Estimated
12:15PM 43.9071 87.4742 144° Southeast  Level Estimated
12:16PM 43.9071 87.4742 144° Southeast  Level Estimated